Deerbrook, Wisconsin
Current Conditions -  °F | °C
As of 9:55 PM on Monday 22 Dec 2014 (Local Time) from KAIG Reporting Station
Light Snow Light Snow  
Wind Chill: 19°   Ceiling: 700
Heat Index: 31°   Visibility: 2mi
Dew Point: 30°   Wind: 17mph
Humidity: 96%   Direction: 90°E
Pressure: 29.7"   Gusts: 22mph
Location:  45.23°N, 89.16°W
Report Text: KAIG 230355Z AUTO 09015G19KT 2SM -SN OVC007 M01/M01 A2970 RMK AO2 T10071012 400001010
Loading
Personal Weather Stations






























Interactive Weather Map New forecast layout! Learn more

10-Day Weather Forecast

Advertisements
Track Severe Weather on mobile